Time;durP1;ratioP1;P1;durP2;ratioP2;P2;SDS_P1;SDS_P2;PMS_P1;PMS_P2;Temp;Humidity;BMP_temperature;BMP_pressure;BME280_temperature;BME280_humidity;BME280_pressure;Samples;Min_cycle;Max_cycle;Signal;HPM_P1;HPM_P2
2022/04/15 00:02:10;;;;;;;6.10;3.92;;;12.50;99.90;;;;;;4953256;28;20023;-87
2022/04/15 00:04:36;;;;;;;7.72;3.38;;;12.40;99.90;;;;;;4953699;28;20594;-88
2022/04/15 00:07:02;;;;;;;5.03;2.97;;;12.50;99.90;;;;;;4957372;28;20086;-88
2022/04/15 00:09:30;;;;;;;7.05;3.55;;;12.40;99.90;;;;;;4954160;28;20307;-87
2022/04/15 00:11:57;;;;;;;9.63;4.00;;;12.20;99.90;;;;;;4954409;28;20030;-86
2022/04/15 00:14:23;;;;;;;8.88;3.35;;;12.20;99.90;;;;;;4954952;28;20058;-86
2022/04/15 00:16:49;;;;;;;5.25;3.40;;;12.30;99.90;;;;;;4952616;28;20055;-86
2022/04/15 00:19:15;;;;;;;7.32;3.45;;;12.40;99.90;;;;;;4954299;28;20046;-87
2022/04/15 00:21:41;;;;;;;6.95;3.47;;;12.40;99.90;;;;;;4936339;29;20487;-86
2022/04/15 00:24:07;;;;;;;12.35;4.10;;;12.20;99.90;;;;;;4954654;28;20106;-87
2022/04/15 00:26:32;;;;;;;8.15;4.28;;;12.10;99.90;;;;;;4954134;28;20030;-86
2022/04/15 00:28:58;;;;;;;5.82;3.85;;;12.20;99.90;;;;;;4954134;29;20023;-87
2022/04/15 00:31:24;;;;;;;6.20;3.63;;;12.20;99.90;;;;;;4953758;28;20099;-86
2022/04/15 00:33:49;;;;;;;4.75;3.65;;;12.30;99.90;;;;;;4936306;29;20027;-87
2022/04/15 00:36:15;;;;;;;8.82;4.53;;;12.20;99.90;;;;;;4953750;29;20392;-87
2022/04/15 00:38:41;;;;;;;8.23;4.13;;;12.10;99.90;;;;;;4952379;29;20031;-86
2022/04/15 00:41:12;;;;;;;5.93;3.80;;;12.00;99.90;;;;;;4953991;29;20078;-85
2022/04/15 00:43:37;;;;;;;12.43;3.95;;;12.10;99.90;;;;;;4953548;29;20027;-87
2022/04/15 00:46:10;;;;;;;8.20;4.35;;;12.10;99.90;;;;;;4970742;28;20066;-89
2022/04/15 00:48:36;;;;;;;9.38;4.93;;;12.10;99.90;;;;;;4957169;29;20031;-88
2022/04/15 00:51:03;;;;;;;10.93;4.38;;;12.00;99.90;;;;;;4974095;28;20042;-89
2022/04/15 00:53:29;;;;;;;6.60;4.07;;;12.00;99.90;;;;;;4974890;28;20051;-87
2022/04/15 00:56:01;;;;;;;5.68;3.95;;;11.90;99.90;;;;;;4957681;29;20038;-89
2022/04/15 00:58:28;;;;;;;6.50;4.32;;;11.90;99.90;;;;;;4974522;29;20123;-88
2022/04/15 01:00:57;;;;;;;7.70;4.28;;;11.80;99.90;;;;;;4957634;28;20042;-88
2022/04/15 01:03:23;;;;;;;7.68;4.82;;;11.80;99.90;;;;;;4956367;28;20503;-88
2022/04/15 01:05:52;;;;;;;7.30;3.85;;;11.70;99.90;;;;;;4975722;28;20050;-87
2022/04/15 01:08:22;;;;;;;9.02;4.82;;;11.60;99.90;;;;;;4975659;28;20518;-88
2022/04/15 01:10:51;;;;;;;4.80;3.90;;;11.50;99.90;;;;;;4975249;28;20432;-87
2022/04/15 01:13:20;;;;;;;7.15;3.92;;;11.40;99.90;;;;;;4958599;28;20034;-87
2022/04/15 01:15:48;;;;;;;8.75;4.38;;;11.40;99.90;;;;;;4976509;28;20023;-88
2022/04/15 01:18:13;;;;;;;6.00;3.42;;;11.40;99.90;;;;;;4955948;29;20027;-87
2022/04/15 01:20:42;;;;;;;4.95;3.90;;;11.30;99.90;;;;;;4955792;28;20032;-88
2022/04/15 01:23:08;;;;;;;11.27;4.38;;;11.30;99.90;;;;;;4956427;28;20038;-87
2022/04/15 01:25:35;;;;;;;5.60;4.03;;;11.40;99.90;;;;;;4955857;28;20122;-87
2022/04/15 01:28:01;;;;;;;6.03;4.60;;;11.30;99.90;;;;;;4955461;29;20484;-87
2022/04/15 01:30:27;;;;;;;8.55;4.18;;;11.40;99.90;;;;;;4955491;28;20093;-87
2022/04/15 01:32:52;;;;;;;8.15;4.65;;;11.40;99.90;;;;;;4956893;28;20023;-88
2022/04/15 01:35:19;;;;;;;15.20;4.35;;;11.30;99.90;;;;;;4956991;28;20118;-84
2022/04/15 01:37:47;;;;;;;4.95;3.88;;;11.20;99.90;;;;;;4956077;28;20451;-86
2022/04/15 01:40:17;;;;;;;12.23;4.60;;;11.20;99.90;;;;;;4956723;28;20230;-87
2022/04/15 01:42:46;;;;;;;6.43;4.53;;;11.20;99.90;;;;;;4957926;28;20078;-87
2022/04/15 01:45:12;;;;;;;6.35;4.50;;;11.20;99.90;;;;;;4956609;28;20562;-87
2022/04/15 01:47:41;;;;;;;6.93;5.13;;;11.30;99.90;;;;;;4957053;28;20055;-86
2022/04/15 01:50:08;;;;;;;9.40;4.93;;;11.30;99.90;;;;;;4956950;28;20061;-86
2022/04/15 01:52:34;;;;;;;9.38;5.60;;;11.40;99.90;;;;;;4957326;28;20031;-86
2022/04/15 01:55:00;;;;;;;14.30;6.30;;;11.40;99.90;;;;;;4956126;28;20035;-85
2022/04/15 01:57:26;;;;;;;10.00;5.93;;;11.40;99.90;;;;;;4957289;28;20027;-87
2022/04/15 01:59:52;;;;;;;11.07;5.88;;;11.30;99.90;;;;;;4943916;28;20114;-86
2022/04/15 02:02:18;;;;;;;15.88;6.75;;;11.20;99.90;;;;;;4938823;29;20034;-86
2022/04/15 02:04:44;;;;;;;8.70;5.93;;;11.20;99.90;;;;;;4959129;29;20031;-86
2022/04/15 02:07:10;;;;;;;9.77;6.90;;;11.10;99.90;;;;;;4955741;29;20384;-87
2022/04/15 02:09:35;;;;;;;12.15;5.90;;;11.10;99.90;;;;;;4955828;29;20391;-87
2022/04/15 02:12:01;;;;;;;12.40;6.10;;;11.10;99.90;;;;;;4955296;28;20444;-87
2022/04/15 02:14:27;;;;;;;12.93;7.10;;;11.10;99.90;;;;;;4954664;28;20027;-86
2022/04/15 02:16:53;;;;;;;11.38;7.30;;;11.10;99.90;;;;;;4955673;29;20030;-86
2022/04/15 02:19:22;;;;;;;9.98;6.53;;;11.00;99.90;;;;;;4955857;29;20023;-86
2022/04/15 02:21:48;;;;;;;11.45;7.10;;;11.00;99.90;;;;;;4955427;28;20400;-86
2022/04/15 02:24:14;;;;;;;14.55;6.60;;;11.00;99.90;;;;;;4954524;29;20506;-86
2022/04/15 02:26:41;;;;;;;10.38;6.53;;;11.00;99.90;;;;;;4954498;29;20038;-87
2022/04/15 02:29:06;;;;;;;12.82;7.28;;;10.90;99.90;;;;;;4955936;28;20028;-85
2022/04/15 02:31:32;;;;;;;10.23;7.43;;;10.80;99.90;;;;;;4954773;28;20110;-86
2022/04/15 02:33:58;;;;;;;10.82;7.97;;;10.80;99.90;;;;;;4955721;28;20050;-87
2022/04/15 02:36:24;;;;;;;13.65;6.82;;;10.70;99.90;;;;;;4953603;29;20024;-86
2022/04/15 02:38:49;;;;;;;15.15;7.07;;;10.70;99.90;;;;;;4953942;28;20399;-85
2022/04/15 02:41:17;;;;;;;12.38;6.85;;;10.70;99.90;;;;;;4953681;28;20487;-86
2022/04/15 02:44:10;;;;;;;11.65;6.18;;;10.60;99.90;;;;;;4953708;28;20027;-86
2022/04/15 02:46:36;;;;;;;13.23;6.15;;;10.60;99.90;;;;;;4954029;28;20054;-85
2022/04/15 02:49:03;;;;;;;10.15;6.38;;;10.60;99.90;;;;;;4954734;28;20034;-85
2022/04/15 02:51:38;;;;;;;10.73;5.97;;;10.60;99.90;;;;;;4954493;28;20121;-87
2022/04/15 02:54:03;;;;;;;10.73;5.10;;;10.50;99.90;;;;;;4953661;29;20114;-83
2022/04/15 02:56:29;;;;;;;9.00;5.90;;;10.60;99.90;;;;;;4953546;28;20174;-85
2022/04/15 02:58:56;;;;;;;11.80;7.05;;;10.60;99.90;;;;;;4953495;28;20034;-87
2022/04/15 03:01:21;;;;;;;9.90;7.13;;;10.70;99.90;;;;;;4952834;28;20514;-86
2022/04/15 03:03:47;;;;;;;10.13;6.22;;;10.80;99.90;;;;;;4953236;28;20043;-87
2022/04/15 03:06:12;;;;;;;11.35;7.22;;;10.70;99.90;;;;;;4954514;28;20042;-87
2022/04/15 03:08:38;;;;;;;19.20;7.10;;;10.50;99.90;;;;;;4953040;28;20113;-86
2022/04/15 03:11:12;;;;;;;10.48;6.75;;;10.50;99.90;;;;;;4954136;28;20479;-86
2022/04/15 03:13:41;;;;;;;14.35;8.55;;;10.50;99.90;;;;;;4954374;28;20038;-86
2022/04/15 03:16:09;;;;;;;12.50;7.40;;;10.50;99.90;;;;;;4953006;28;20559;-86
2022/04/15 03:18:35;;;;;;;9.65;7.20;;;10.40;99.90;;;;;;4944585;28;20453;-88
2022/04/15 03:21:00;;;;;;;12.60;7.70;;;10.50;99.90;;;;;;4952436;28;20034;-86
2022/04/15 03:23:26;;;;;;;15.90;7.75;;;10.50;99.90;;;;;;4954505;28;20030;-86
2022/04/15 03:25:52;;;;;;;12.38;8.40;;;10.50;99.90;;;;;;4953929;28;20031;-86
2022/04/15 03:28:18;;;;;;;12.23;8.63;;;10.50;99.90;;;;;;4953956;28;20534;-85
2022/04/15 03:30:43;;;;;;;16.50;8.57;;;10.50;99.90;;;;;;4937020;29;20019;-85
2022/04/15 03:33:12;;;;;;;14.18;7.90;;;10.50;99.90;;;;;;4936789;29;20506;-85
2022/04/15 03:35:38;;;;;;;13.73;7.90;;;10.40;99.90;;;;;;4954944;28;20097;-86
2022/04/15 03:38:06;;;;;;;14.65;8.82;;;10.30;99.90;;;;;;4955110;28;20480;-87
2022/04/15 03:40:32;;;;;;;15.75;9.07;;;10.30;99.90;;;;;;4954610;28;20118;-87
2022/04/15 03:42:57;;;;;;;16.17;9.68;;;10.30;99.90;;;;;;4937423;29;20082;-85
2022/04/15 03:45:24;;;;;;;11.70;8.10;;;10.30;99.90;;;;;;4954759;28;20531;-86
2022/04/15 03:47:54;;;;;;;13.82;9.15;;;10.30;99.90;;;;;;4954150;28;20043;-86
2022/04/15 03:50:20;;;;;;;12.45;8.77;;;10.30;99.90;;;;;;4989820;23;20074;-86
2022/04/15 03:52:49;;;;;;;11.70;8.82;;;10.20;99.90;;;;;;5012637;28;20091;-87
2022/04/15 03:55:19;;;;;;;15.57;8.77;;;10.20;99.90;;;;;;5012976;28;20022;-88
2022/04/15 03:57:46;;;;;;;16.58;9.77;;;10.10;99.90;;;;;;4994860;28;20030;-89
2022/04/15 04:00:15;;;;;;;16.00;9.48;;;10.00;99.90;;;;;;4993413;28;20070;-88
2022/04/15 04:02:46;;;;;;;17.27;10.07;;;10.00;99.90;;;;;;4975759;28;20398;-90
2022/04/15 04:05:13;;;;;;;20.60;10.00;;;10.00;99.90;;;;;;4992774;28;20501;-88
2022/04/15 04:07:39;;;;;;;15.70;9.48;;;10.00;99.90;;;;;;4975426;28;20134;-89
2022/04/15 04:10:05;;;;;;;19.48;10.52;;;10.10;99.90;;;;;;4975121;28;20028;-89
2022/04/15 04:12:33;;;;;;;18.50;10.20;;;10.10;99.90;;;;;;4993217;28;20109;-87
2022/04/15 04:14:59;;;;;;;17.50;9.63;;;10.10;99.90;;;;;;4975850;28;20022;-88
2022/04/15 04:17:25;;;;;;;14.75;9.70;;;10.10;99.90;;;;;;4993330;28;20061;-88
2022/04/15 04:19:50;;;;;;;17.83;11.20;;;10.10;99.90;;;;;;4993519;28;20386;-87
2022/04/15 04:22:16;;;;;;;16.85;10.73;;;10.10;99.90;;;;;;4994391;28;20097;-88
2022/04/15 04:24:41;;;;;;;15.18;10.23;;;10.00;99.90;;;;;;5003086;28;20109;-88
2022/04/15 04:27:07;;;;;;;17.42;10.60;;;9.90;99.90;;;;;;5004875;28;20023;-87
2022/04/15 04:29:33;;;;;;;15.02;10.43;;;9.80;99.90;;;;;;4991273;28;20625;-87
2022/04/15 04:31:58;;;;;;;16.75;10.75;;;9.70;99.90;;;;;;4992927;28;20023;-88
2022/04/15 04:34:24;;;;;;;14.70;9.98;;;9.80;99.90;;;;;;4993193;28;20054;-87
2022/04/15 04:36:50;;;;;;;18.38;11.10;;;9.90;99.90;;;;;;4993107;28;20110;-87
2022/04/15 04:39:16;;;;;;;19.58;10.98;;;10.00;99.90;;;;;;4995114;28;20106;-88
2022/04/15 04:41:42;;;;;;;18.23;11.02;;;10.00;99.90;;;;;;4995617;28;20038;-88
2022/04/15 04:44:08;;;;;;;17.35;10.82;;;10.10;99.90;;;;;;4996168;28;20042;-88
2022/04/15 04:46:35;;;;;;;14.25;9.73;;;10.00;99.90;;;;;;4994520;28;20033;-87
2022/04/15 04:49:01;;;;;;;16.05;10.27;;;10.00;99.90;;;;;;4994625;28;20030;-87
2022/04/15 04:51:26;;;;;;;16.15;10.52;;;10.10;99.90;;;;;;4995284;28;20027;-88
2022/04/15 04:53:52;;;;;;;13.50;8.10;;;10.10;99.90;;;;;;4996107;28;20030;-88
2022/04/15 04:56:18;;;;;;;14.65;9.05;;;10.20;99.90;;;;;;4994355;28;20046;-87
2022/04/15 04:58:43;;;;;;;14.18;9.40;;;10.20;99.90;;;;;;4995904;28;20026;-90
2022/04/15 05:01:09;;;;;;;13.50;9.02;;;10.20;99.90;;;;;;4995262;28;20069;-88
2022/04/15 05:03:34;;;;;;;11.85;8.88;;;10.10;99.90;;;;;;4978326;28;20470;-88
2022/04/15 05:06:00;;;;;;;11.38;8.80;;;10.10;99.90;;;;;;4995125;28;20030;-88
2022/04/15 05:08:25;;;;;;;13.73;9.02;;;10.10;99.90;;;;;;4995309;28;20027;-89
2022/04/15 05:10:51;;;;;;;15.75;9.63;;;10.00;99.90;;;;;;4977677;28;20037;-87
2022/04/15 05:13:17;;;;;;;15.20;10.02;;;10.00;99.90;;;;;;4977908;28;20030;-85
2022/04/15 05:15:42;;;;;;;18.33;10.60;;;10.20;99.90;;;;;;4978047;28;20499;-89
2022/04/15 05:18:09;;;;;;;13.15;10.23;;;10.20;99.90;;;;;;4995130;28;20430;-87
2022/04/15 05:20:37;;;;;;;22.10;11.82;;;10.30;99.90;;;;;;4993501;28;20053;-87
2022/04/15 05:23:02;;;;;;;15.90;10.00;;;10.30;99.90;;;;;;4993942;28;20493;-87
2022/04/15 05:25:28;;;;;;;19.67;10.48;;;10.30;99.90;;;;;;4994032;28;20070;-87
2022/04/15 05:27:58;;;;;;;14.13;9.70;;;10.30;99.90;;;;;;4994971;28;20026;-87
2022/04/15 05:30:26;;;;;;;19.77;10.85;;;10.40;99.90;;;;;;4993907;28;20057;-87
2022/04/15 05:32:52;;;;;;;14.43;10.10;;;10.50;99.90;;;;;;4993852;28;20018;-87
2022/04/15 05:35:17;;;;;;;15.88;9.43;;;10.60;99.90;;;;;;4993863;28;20121;-88
2022/04/15 05:37:43;;;;;;;13.40;10.13;;;10.70;99.90;;;;;;4993699;28;20491;-87
2022/04/15 05:40:09;;;;;;;19.00;10.02;;;10.70;99.90;;;;;;4993588;28;20030;-87
2022/04/15 05:42:34;;;;;;;17.85;9.88;;;10.70;99.90;;;;;;4994863;28;20509;-87
2022/04/15 05:45:00;;;;;;;12.63;8.75;;;10.70;99.90;;;;;;4994696;28;20030;-87
2022/04/15 05:47:25;;;;;;;17.42;9.88;;;10.70;99.90;;;;;;4993706;28;20058;-86
2022/04/15 05:49:51;;;;;;;15.18;9.98;;;10.80;99.90;;;;;;4995057;28;20018;-86
2022/04/15 05:52:17;;;;;;;15.88;10.85;;;10.80;99.90;;;;;;4993122;28;20148;-88
2022/04/15 05:54:42;;;;;;;17.55;9.55;;;10.80;99.90;;;;;;4994906;28;20033;-86
2022/04/15 05:57:08;;;;;;;12.63;8.48;;;10.80;99.90;;;;;;4995390;28;20030;-86
2022/04/15 05:59:33;;;;;;;16.00;10.18;;;10.80;99.90;;;;;;4994475;28;20023;-87
2022/04/15 06:01:59;;;;;;;15.82;10.65;;;10.70;99.90;;;;;;4994174;28;20026;-87
2022/04/15 06:04:25;;;;;;;14.60;9.75;;;10.70;99.90;;;;;;4977208;28;20026;-87
2022/04/15 06:06:50;;;;;;;20.67;12.63;;;10.90;99.90;;;;;;4977055;28;20027;-86
2022/04/15 06:09:16;;;;;;;21.98;14.27;;;11.00;99.90;;;;;;4994670;28;20029;-87
2022/04/15 06:11:42;;;;;;;19.63;13.05;;;11.00;99.90;;;;;;4994343;28;20029;-87
2022/04/15 06:14:08;;;;;;;27.55;14.63;;;11.10;99.90;;;;;;4994408;28;20044;-86
2022/04/15 06:16:37;;;;;;;27.35;15.88;;;11.20;99.90;;;;;;4994003;28;20030;-87
2022/04/15 06:19:03;;;;;;;19.80;13.80;;;11.40;99.90;;;;;;4988905;28;20073;-84
2022/04/15 06:21:29;;;;;;;29.38;14.98;;;11.50;99.90;;;;;;5014849;28;20031;-88
2022/04/15 06:23:54;;;;;;;22.17;14.43;;;11.60;99.90;;;;;;4999143;28;20375;-87
2022/04/15 06:26:20;;;;;;;26.00;15.25;;;11.70;99.90;;;;;;4992637;28;20066;-88
2022/04/15 06:28:46;;;;;;;21.55;15.68;;;11.70;99.90;;;;;;4993066;28;20030;-87
2022/04/15 06:31:11;;;;;;;26.23;16.63;;;11.80;99.90;;;;;;4992496;28;20036;-85
2022/04/15 06:33:37;;;;;;;26.67;15.70;;;11.90;99.90;;;;;;4994735;28;20114;-87
2022/04/15 06:36:04;;;;;;;25.25;16.33;;;11.90;99.90;;;;;;4992863;28;20023;-87
2022/04/15 06:38:29;;;;;;;26.80;16.88;;;12.10;99.90;;;;;;4992805;28;20038;-87
2022/04/15 06:40:55;;;;;;;30.05;18.70;;;12.20;99.90;;;;;;4992626;28;20082;-86
2022/04/15 06:43:21;;;;;;;30.35;17.08;;;12.30;99.90;;;;;;4994151;28;20041;-87
2022/04/15 06:45:47;;;;;;;23.08;16.98;;;12.40;99.90;;;;;;4992941;28;20027;-86
2022/04/15 06:48:13;;;;;;;22.42;14.98;;;12.50;99.90;;;;;;4993020;28;20019;-88
2022/04/15 06:50:38;;;;;;;30.98;16.65;;;12.60;99.90;;;;;;5013200;28;20034;-90
2022/04/15 06:53:04;;;;;;;25.77;16.33;;;12.70;99.90;;;;;;4999821;28;20031;-87
2022/04/15 06:55:30;;;;;;;26.67;15.68;;;12.80;99.90;;;;;;4992851;28;20458;-86
2022/04/15 06:57:55;;;;;;;26.13;16.90;;;12.90;99.90;;;;;;4992849;28;20034;-87
2022/04/15 07:00:22;;;;;;;29.33;16.98;;;12.90;99.90;;;;;;4978704;28;20511;-86
2022/04/15 07:02:49;;;;;;;25.98;15.57;;;13.00;99.90;;;;;;4993890;28;20324;-87
2022/04/15 07:05:16;;;;;;;25.77;16.50;;;13.00;99.90;;;;;;4993216;28;20390;-87
2022/04/15 07:07:42;;;;;;;25.13;15.80;;;13.00;99.90;;;;;;4975994;28;20027;-87
2022/04/15 07:10:10;;;;;;;25.67;16.02;;;13.00;99.90;;;;;;4975541;28;20030;-87
2022/04/15 07:12:36;;;;;;;23.20;14.88;;;13.10;99.90;;;;;;4976023;28;20031;-87
2022/04/15 07:15:03;;;;;;;24.80;15.40;;;13.30;99.90;;;;;;4976503;28;20065;-86
2022/04/15 07:17:29;;;;;;;23.52;15.63;;;13.40;99.90;;;;;;4993390;28;20064;-87
2022/04/15 07:19:55;;;;;;;26.02;15.00;;;13.60;99.90;;;;;;4976100;28;20034;-87
2022/04/15 07:22:30;;;;;;;23.63;14.32;;;13.70;99.90;;;;;;4995264;28;20033;-86
2022/04/15 07:25:20;;;;;;;22.30;14.43;;;13.80;99.90;;;;;;4993943;28;20023;-88
2022/04/15 07:28:12;;;;;;;23.13;14.68;;;13.80;99.90;;;;;;4975907;28;20548;-87
2022/04/15 07:30:57;;;;;;;22.55;14.68;;;13.80;99.90;;;;;;4964273;28;20034;-87
2022/04/15 07:33:27;;;;;;;24.60;14.35;;;13.90;99.90;;;;;;4963564;28;20026;-87
2022/04/15 07:35:53;;;;;;;29.73;15.23;;;13.90;99.90;;;;;;4976479;28;20049;-87
2022/04/15 07:38:27;;;;;;;29.40;16.10;;;14.00;99.90;;;;;;4993292;28;20403;-87
2022/04/15 07:40:56;;;;;;;22.40;14.43;;;13.90;99.90;;;;;;4976241;28;20026;-87
2022/04/15 07:43:21;;;;;;;24.05;15.25;;;13.90;99.90;;;;;;4977429;28;20085;-88
2022/04/15 07:45:47;;;;;;;30.52;16.15;;;14.10;99.90;;;;;;4995245;28;20034;-86
2022/04/15 07:48:13;;;;;;;27.48;15.07;;;14.30;99.90;;;;;;4994221;28;20077;-87
2022/04/15 07:50:39;;;;;;;25.85;15.75;;;14.40;99.90;;;;;;4976828;28;20034;-87
2022/04/15 07:53:04;;;;;;;28.73;16.08;;;14.50;99.90;;;;;;4997781;28;20200;-87
2022/04/15 07:55:31;;;;;;;27.23;15.43;;;14.60;99.90;;;;;;4978580;28;20037;-86
2022/04/15 07:57:57;;;;;;;23.27;15.23;;;14.80;99.90;;;;;;4993094;28;20027;-88
2022/04/15 08:00:22;;;;;;;27.23;15.48;;;14.90;99.90;;;;;;4991913;28;20037;-87
2022/04/15 08:02:50;;;;;;;29.85;16.10;;;14.80;99.90;;;;;;4991343;28;20410;-87
2022/04/15 08:05:16;;;;;;;25.65;15.05;;;14.90;99.90;;;;;;4991061;28;20030;-89
2022/04/15 08:07:42;;;;;;;25.45;16.15;;;15.00;99.90;;;;;;4992110;28;20027;-86
2022/04/15 08:10:10;;;;;;;26.65;16.30;;;15.00;99.90;;;;;;4990340;28;20042;-87
2022/04/15 08:12:37;;;;;;;28.95;17.35;;;14.90;99.90;;;;;;4992528;28;20034;-87
2022/04/15 08:15:04;;;;;;;21.35;15.02;;;15.00;99.90;;;;;;4996688;28;20097;-88
2022/04/15 08:17:29;;;;;;;23.63;16.08;;;15.00;99.90;;;;;;4997906;28;20022;-88
2022/04/15 08:19:55;;;;;;;27.73;16.80;;;15.20;99.20;;;;;;5018703;28;20041;-89
2022/04/15 08:22:21;;;;;;;28.52;17.35;;;15.30;98.20;;;;;;4981682;28;20026;-88
2022/04/15 08:24:46;;;;;;;22.85;15.30;;;15.40;97.00;;;;;;4996357;28;20037;-87
2022/04/15 08:27:12;;;;;;;25.90;15.13;;;15.50;97.60;;;;;;4996022;28;20053;-87
2022/04/15 08:29:42;;;;;;;27.73;16.90;;;15.60;95.90;;;;;;4995503;28;20105;-87
2022/04/15 08:32:13;;;;;;;24.20;16.35;;;15.60;95.40;;;;;;4995743;28;20018;-87
2022/04/15 08:34:39;;;;;;;26.63;16.38;;;15.60;94.90;;;;;;4978409;28;20031;-88
2022/04/15 08:37:05;;;;;;;26.20;16.35;;;15.70;94.10;;;;;;4996080;28;20034;-88
2022/04/15 08:39:30;;;;;;;24.27;15.38;;;15.70;93.90;;;;;;4995943;28;20084;-88
2022/04/15 08:41:59;;;;;;;27.90;15.38;;;15.90;93.70;;;;;;4978162;28;20018;-88
2022/04/15 08:44:25;;;;;;;26.63;15.65;;;16.10;91.90;;;;;;4995629;28;20475;-88
2022/04/15 08:46:51;;;;;;;23.02;15.02;;;16.30;92.00;;;;;;4996066;28;20041;-88
2022/04/15 08:49:19;;;;;;;21.23;13.40;;;16.30;90.60;;;;;;4995801;28;20026;-88
2022/04/15 08:51:50;;;;;;;24.23;13.93;;;16.30;91.00;;;;;;4995323;28;20031;-88
2022/04/15 08:54:17;;;;;;;26.88;14.68;;;16.40;91.00;;;;;;4995712;28;20084;-87
2022/04/15 08:56:43;;;;;;;24.42;15.18;;;16.60;90.00;;;;;;5007506;28;20022;-90
2022/04/15 08:59:09;;;;;;;21.33;14.13;;;16.70;89.20;;;;;;4995991;28;20406;-87
2022/04/15 09:01:35;;;;;;;24.95;15.40;;;16.90;87.80;;;;;;4995575;28;20420;-88
2022/04/15 09:04:03;;;;;;;26.80;15.88;;;16.90;86.70;;;;;;4994267;28;20474;-89
2022/04/15 09:06:32;;;;;;;24.67;15.35;;;16.70;86.10;;;;;;4995531;28;20034;-88
2022/04/15 09:09:08;;;;;;;25.25;15.10;;;16.80;85.80;;;;;;4995857;28;20105;-88
2022/04/15 09:11:35;;;;;;;23.13;15.23;;;16.70;86.90;;;;;;4995395;28;20018;-88
2022/04/15 09:14:12;;;;;;;22.92;15.27;;;16.90;83.40;;;;;;4994392;28;20023;-88
2022/04/15 09:16:47;;;;;;;24.50;14.13;;;16.90;83.40;;;;;;4995381;28;20026;-86
2022/04/15 09:19:14;;;;;;;26.75;15.77;;;16.90;85.40;;;;;;4980270;28;20026;-88
2022/04/15 09:21:42;;;;;;;25.40;15.10;;;16.60;84.20;;;;;;4995127;28;20467;-88
2022/04/15 09:24:08;;;;;;;22.05;15.25;;;16.50;86.10;;;;;;4977531;28;20036;-88
2022/04/15 09:26:37;;;;;;;22.85;15.73;;;16.60;84.60;;;;;;4977469;28;20391;-88
2022/04/15 09:29:03;;;;;;;24.75;14.95;;;16.50;83.20;;;;;;4993776;28;20050;-89
2022/04/15 09:31:28;;;;;;;22.58;14.00;;;16.50;83.70;;;;;;4977409;28;20070;-88
2022/04/15 09:34:02;;;;;;;20.50;13.65;;;16.70;82.10;;;;;;4995244;28;20105;-88
2022/04/15 09:36:36;;;;;;;22.02;14.57;;;17.00;80.30;;;;;;4994787;28;20544;-89
2022/04/15 09:39:14;;;;;;;23.60;13.93;;;17.30;77.20;;;;;;4994930;28;20101;-88
2022/04/15 09:41:48;;;;;;;22.35;12.95;;;17.50;75.80;;;;;;4977273;28;20117;-88
2022/04/15 09:44:13;;;;;;;20.65;14.35;;;17.40;76.10;;;;;;4977364;28;20490;-87
2022/04/15 09:46:44;;;;;;;23.90;14.13;;;17.30;75.00;;;;;;4977161;28;20058;-88
2022/04/15 09:49:11;;;;;;;23.42;13.88;;;17.20;74.20;;;;;;4977545;28;20031;-88
2022/04/15 09:51:45;;;;;;;19.77;13.68;;;17.20;71.20;;;;;;4992408;23;20051;-88
2022/04/15 09:54:33;;;;;;;21.48;12.85;;;17.10;70.10;;;;;;4967252;28;20034;-88
2022/04/15 09:56:59;;;;;;;18.90;12.52;;;17.30;69.90;;;;;;4974794;28;20101;-89
2022/04/15 09:59:27;;;;;;;19.00;12.63;;;17.60;68.90;;;;;;4957702;28;20537;-88
2022/04/15 10:01:58;;;;;;;19.08;12.45;;;18.00;68.90;;;;;;4974672;28;20078;-88
2022/04/15 10:04:25;;;;;;;21.83;12.48;;;18.10;68.00;;;;;;4975218;28;20134;-89
2022/04/15 10:06:52;;;;;;;22.25;12.52;;;18.30;66.90;;;;;;4974565;28;20435;-89
2022/04/15 10:09:17;;;;;;;17.75;11.90;;;18.30;66.60;;;;;;4974901;28;20089;-90
2022/04/15 10:11:45;;;;;;;15.57;11.50;;;18.40;67.10;;;;;;4956998;28;20031;-88
2022/04/15 10:14:12;;;;;;;15.55;10.75;;;18.50;65.50;;;;;;4974726;28;20027;-87
2022/04/15 10:16:39;;;;;;;15.45;10.05;;;18.80;62.60;;;;;;4957006;28;20022;-89
2022/04/15 10:19:06;;;;;;;20.63;11.75;;;19.20;61.90;;;;;;4974440;28;20027;-88
2022/04/15 10:21:40;;;;;;;19.27;11.15;;;19.70;61.50;;;;;;4974430;28;20038;-88
2022/04/15 10:24:09;;;;;;;13.77;8.88;;;20.00;60.80;;;;;;4974371;28;20037;-88
2022/04/15 10:26:45;;;;;;;16.67;9.85;;;19.80;59.80;;;;;;4974310;28;20117;-88
2022/04/15 10:29:12;;;;;;;19.85;12.07;;;19.40;59.40;;;;;;4973243;28;20162;-88
2022/04/15 10:31:38;;;;;;;16.20;10.35;;;18.90;60.30;;;;;;4956709;28;20035;-88
2022/04/15 10:34:18;;;;;;;16.52;9.98;;;18.60;62.00;;;;;;4957050;28;20082;-88
2022/04/15 10:36:49;;;;;;;13.93;8.37;;;18.50;62.60;;;;;;4973392;28;20380;-88
2022/04/15 10:39:19;;;;;;;15.73;8.30;;;18.70;62.90;;;;;;4974435;28;20031;-87
2022/04/15 10:41:45;;;;;;;15.40;8.85;;;19.30;60.00;;;;;;4974087;28;20034;-88
2022/04/15 10:44:12;;;;;;;12.73;8.02;;;19.50;57.80;;;;;;4974518;28;20027;-86
2022/04/15 10:46:38;;;;;;;12.52;8.10;;;19.10;57.70;;;;;;4956638;28;20027;-88
2022/04/15 10:49:23;;;;;;;14.95;6.90;;;18.80;58.30;;;;;;4974097;28;20094;-88
2022/04/15 10:51:51;;;;;;;11.48;7.57;;;18.80;59.70;;;;;;4973343;28;20046;-88
2022/04/15 10:54:35;;;;;;;10.95;7.18;;;18.90;57.40;;;;;;4973880;28;20038;-88
2022/04/15 10:57:02;;;;;;;12.15;6.80;;;18.80;57.60;;;;;;4973814;28;20039;-88
2022/04/15 11:02:46;;;;;;;10.13;6.47;;;19.60;58.00;;;;;;4965852;28;20560;-88
2022/04/15 11:05:17;;;;;;;9.93;6.15;;;20.20;55.90;;;;;;4956480;28;20521;-87
2022/04/15 11:07:57;;;;;;;9.02;5.60;;;20.40;55.10;;;;;;4956464;28;20035;-89
2022/04/15 11:10:41;;;;;;;9.50;6.50;;;20.40;54.90;;;;;;4973611;28;20054;-88
2022/04/15 11:13:28;;;;;;;8.15;4.93;;;20.20;55.20;;;;;;4956460;28;20025;-89
2022/04/15 11:16:01;;;;;;;8.68;5.47;;;20.00;55.20;;;;;;4924379;28;20034;-88
2022/04/15 11:18:50;;;;;;;11.32;5.95;;;19.80;54.10;;;;;;4972806;28;20052;-88
2022/04/15 11:21:17;;;;;;;12.63;5.88;;;19.60;55.40;;;;;;4973347;28;20025;-89
2022/04/15 11:23:52;;;;;;;8.73;5.70;;;19.80;55.60;;;;;;4973540;28;20058;-89
2022/04/15 11:26:18;;;;;;;10.57;6.00;;;19.90;54.30;;;;;;4972139;28;20414;-89
2022/04/15 11:28:45;;;;;;;11.02;5.70;;;20.10;53.50;;;;;;4972351;28;20066;-88
2022/04/15 11:31:28;;;;;;;8.55;4.85;;;19.80;53.60;;;;;;4971689;28;20022;-88
2022/04/15 11:33:55;;;;;;;10.23;6.07;;;19.80;54.10;;;;;;4973497;28;20111;-88
2022/04/15 11:36:23;;;;;;;9.85;5.50;;;20.20;53.50;;;;;;4973158;28;20046;-88
2022/04/15 11:38:50;;;;;;;9.65;5.97;;;20.30;53.90;;;;;;4973117;28;20046;-88
2022/04/15 11:41:21;;;;;;;9.73;6.32;;;20.30;53.70;;;;;;4972716;28;20491;-89
2022/04/15 11:44:02;;;;;;;9.88;5.70;;;20.60;54.30;;;;;;4973532;28;20038;-88
2022/04/15 11:46:48;;;;;;;6.82;5.07;;;20.60;52.50;;;;;;4975621;28;20438;-88
2022/04/15 11:49:27;;;;;;;6.38;4.90;;;20.40;50.60;;;;;;4971816;28;20082;-88
2022/04/15 11:51:54;;;;;;;10.18;6.10;;;20.10;50.50;;;;;;4973064;28;20031;-88
2022/04/15 11:54:33;;;;;;;9.20;4.88;;;19.90;51.00;;;;;;4973462;28;20025;-88
2022/04/15 11:57:03;;;;;;;10.70;5.82;;;20.10;51.30;;;;;;4973081;28;20085;-88
2022/04/15 11:59:36;;;;;;;10.32;6.88;;;20.50;50.60;;;;;;4970730;28;20483;-88
2022/04/15 12:02:02;;;;;;;12.02;6.95;;;20.30;51.60;;;;;;4972525;28;20030;-88
2022/04/15 12:04:28;;;;;;;10.90;6.45;;;19.80;52.80;;;;;;4955825;28;20026;-86
2022/04/15 12:06:53;;;;;;;9.05;5.18;;;19.50;54.50;;;;;;4972753;28;20419;-87
2022/04/15 12:09:19;;;;;;;8.43;5.82;;;19.70;53.70;;;;;;4973280;28;20030;-88
2022/04/15 12:11:45;;;;;;;9.88;5.50;;;20.10;53.30;;;;;;4955192;28;20483;-88
2022/04/15 12:14:11;;;;;;;9.48;5.82;;;20.30;52.30;;;;;;4972870;28;20033;-89
2022/04/15 12:16:39;;;;;;;9.77;5.90;;;20.20;52.40;;;;;;4955372;28;20066;-89
2022/04/15 12:19:06;;;;;;;13.80;6.03;;;20.20;52.70;;;;;;4967976;28;20061;-89
2022/04/15 12:21:33;;;;;;;8.10;5.03;;;20.50;52.30;;;;;;4971328;28;20565;-88
2022/04/15 12:24:29;;;;;;;8.32;4.82;;;21.00;51.60;;;;;;4973090;28;20034;-87
2022/04/15 12:26:55;;;;;;;9.60;5.50;;;21.30;52.20;;;;;;4966836;28;20035;-88
2022/04/15 12:32:16;;;;;;;9.20;4.68;;;21.70;49.60;;;;;;4975057;28;20070;-87
2022/04/15 12:34:45;;;;;;;7.50;4.28;;;21.50;48.30;;;;;;4974250;28;20034;-88
2022/04/15 12:37:47;;;;;;;6.50;4.15;;;21.40;48.80;;;;;;4972838;28;20644;-88
2022/04/15 12:40:19;;;;;;;8.57;4.82;;;21.50;50.20;;;;;;4971044;28;20027;-84
2022/04/15 12:42:46;;;;;;;8.43;5.00;;;21.80;47.70;;;;;;4972586;28;20030;-89
2022/04/15 12:45:16;;;;;;;7.15;4.72;;;21.90;47.80;;;;;;4972769;28;20430;-87
2022/04/15 12:47:45;;;;;;;9.02;5.70;;;21.60;47.30;;;;;;4972773;28;20034;-87